createdAt,value
2018-07-16T00:00:36.894Z,5.10
2018-07-16T00:03:05.705Z,4.90
2018-07-16T00:05:34.187Z,5.03
2018-07-16T00:08:02.757Z,5.00
2018-07-16T00:10:31.679Z,4.90
2018-07-16T00:13:00.375Z,5.03
2018-07-16T00:15:28.862Z,5.53
2018-07-16T00:17:57.477Z,5.10
2018-07-16T00:20:26.227Z,5.20
2018-07-16T00:22:54.899Z,5.40
2018-07-16T00:25:23.527Z,5.13
2018-07-16T00:27:52.781Z,5.40
2018-07-16T00:30:21.526Z,5.70
2018-07-16T00:32:49.969Z,5.00
2018-07-16T00:35:18.733Z,5.23
2018-07-16T00:37:48.010Z,5.37
2018-07-16T00:40:16.552Z,5.60
2018-07-16T00:42:45.496Z,5.17
2018-07-16T00:45:14.221Z,5.40
2018-07-16T00:47:42.916Z,5.80
2018-07-16T00:50:11.449Z,5.57
2018-07-16T00:52:40.405Z,5.10
2018-07-16T00:55:08.865Z,5.07
2018-07-16T00:57:37.508Z,5.40
2018-07-16T01:00:06.075Z,5.80
2018-07-16T01:02:35.009Z,6.17
2018-07-16T01:05:03.723Z,6.03
2018-07-16T01:07:32.366Z,5.63
2018-07-16T01:10:00.812Z,5.60
2018-07-16T01:12:29.773Z,5.77
2018-07-16T01:14:58.261Z,6.10
2018-07-16T01:17:26.738Z,5.83
2018-07-16T01:19:55.677Z,6.03
2018-07-16T01:22:24.535Z,6.20
2018-07-16T01:24:52.999Z,5.53
2018-07-16T01:27:21.829Z,6.07
2018-07-16T01:29:50.583Z,6.20
2018-07-16T01:32:19.015Z,5.70
2018-07-16T01:34:47.790Z,5.90
2018-07-16T01:37:16.616Z,5.77
2018-07-16T01:39:46.102Z,5.83
2018-07-16T01:42:14.780Z,5.87
2018-07-16T01:44:43.269Z,5.87
2018-07-16T01:47:12.529Z,6.17
2018-07-16T01:49:40.997Z,6.37
2018-07-16T01:52:09.478Z,5.87
2018-07-16T01:54:38.152Z,5.90
2018-07-16T01:57:06.745Z,6.20
2018-07-16T01:59:35.213Z,6.20
2018-07-16T02:02:03.845Z,6.03
2018-07-16T02:04:32.709Z,5.87
2018-07-16T02:07:01.165Z,6.07
2018-07-16T02:09:29.631Z,5.77
2018-07-16T02:11:58.522Z,6.20
2018-07-16T02:14:27.289Z,6.20
2018-07-16T02:16:55.740Z,5.80
2018-07-16T02:19:24.537Z,5.93
2018-07-16T02:21:53.257Z,6.13
2018-07-16T02:24:21.705Z,6.00
2018-07-16T02:26:50.481Z,5.90
2018-07-16T02:36:10.333Z,6.10
2018-07-16T02:38:38.830Z,6.20
2018-07-16T02:41:07.307Z,6.67
2018-07-16T02:43:36.313Z,6.00
2018-07-16T02:46:04.786Z,5.60
2018-07-16T02:48:33.225Z,6.07
2018-07-16T02:51:02.062Z,5.90
2018-07-16T02:53:30.506Z,5.80
2018-07-16T02:55:59.649Z,6.10
2018-07-16T02:58:29.326Z,6.03
2018-07-16T03:00:58.103Z,5.63
2018-07-16T03:03:26.545Z,5.80
2018-07-16T03:05:55.409Z,6.20
2018-07-16T03:08:24.177Z,5.87
2018-07-16T03:10:52.625Z,5.80
2018-07-16T03:13:21.765Z,6.20
2018-07-16T03:15:50.590Z,5.80
2018-07-16T03:18:19.033Z,6.20
2018-07-16T03:20:48.121Z,6.00
2018-07-16T03:23:16.889Z,5.60
2018-07-16T03:25:45.341Z,5.80
2018-07-16T03:28:14.278Z,5.37
2018-07-16T03:30:42.957Z,5.30
2018-07-16T03:33:11.671Z,5.57
2018-07-16T03:35:40.541Z,5.33
2018-07-16T03:38:08.987Z,5.53
2018-07-16T03:40:37.725Z,5.40
2018-07-16T03:43:06.682Z,5.30
2018-07-16T03:45:35.121Z,5.10
2018-07-16T03:48:03.794Z,5.47
2018-07-16T03:50:32.717Z,5.10
2018-07-16T03:53:01.458Z,5.10
2018-07-16T03:55:29.930Z,5.53
2018-07-16T03:57:59.551Z,5.90
2018-07-16T04:00:28.019Z,5.53
2018-07-16T04:02:56.457Z,5.73
2018-07-16T04:05:25.675Z,5.63
2018-07-16T04:07:54.469Z,5.97
2018-07-16T04:10:23.186Z,6.03
2018-07-16T04:12:52.057Z,5.50
2018-07-16T04:15:20.505Z,5.97
2018-07-16T04:17:49.303Z,5.53
2018-07-16T04:20:18.204Z,5.63
2018-07-16T04:22:46.884Z,6.20
2018-07-16T04:25:15.885Z,6.10
2018-07-16T04:27:44.427Z,6.23
2018-07-16T04:30:12.890Z,6.00
2018-07-16T04:32:41.469Z,5.70
2018-07-16T04:35:10.201Z,5.80
2018-07-16T04:37:38.649Z,5.70
2018-07-16T04:40:07.221Z,5.90
2018-07-16T04:42:36.262Z,6.03
2018-07-16T04:45:04.740Z,5.97
2018-07-16T04:47:33.177Z,6.15
2018-07-16T04:50:02.110Z,6.05
2018-07-16T04:52:30.575Z,6.57
2018-07-16T04:54:59.036Z,6.03
2018-07-16T04:57:28.391Z,6.20
2018-07-16T04:59:57.297Z,6.15
2018-07-16T05:02:25.732Z,6.22
2018-07-16T05:04:54.525Z,6.70
2018-07-16T05:07:23.529Z,6.20
2018-07-16T05:09:52.016Z,6.85
2018-07-16T05:12:20.890Z,5.87
2018-07-16T05:14:49.893Z,6.37
2018-07-16T05:17:18.578Z,6.62
2018-07-16T05:19:47.555Z,6.30
2018-07-16T05:22:16.297Z,6.87
2018-07-16T05:24:45.019Z,6.40
2018-07-16T05:27:13.821Z,6.75
2018-07-16T05:29:42.591Z,7.60
2018-07-16T05:32:11.784Z,6.12
2018-07-16T05:34:40.744Z,6.67
2018-07-16T05:37:09.232Z,6.67
2018-07-16T05:39:37.676Z,6.78
2018-07-16T05:42:06.574Z,7.15
2018-07-16T05:44:35.053Z,7.05
2018-07-16T05:47:03.637Z,6.60
2018-07-16T05:49:32.305Z,6.80
2018-07-16T05:52:01.122Z,6.58
2018-07-16T05:54:29.793Z,6.53
2018-07-16T05:56:58.381Z,6.72
2018-07-16T05:59:27.248Z,6.33
2018-07-16T06:01:55.878Z,5.97
2018-07-16T06:04:24.447Z,6.60
2018-07-16T06:06:53.214Z,6.80
2018-07-16T06:09:21.753Z,6.53
2018-07-16T06:11:50.356Z,6.50
2018-07-16T06:14:18.789Z,6.55
2018-07-16T06:16:47.480Z,6.92
2018-07-16T06:19:16.030Z,6.70
2018-07-16T06:21:44.525Z,6.20
2018-07-16T06:24:13.201Z,6.50
2018-07-16T06:26:42.586Z,6.20
2018-07-16T06:29:11.017Z,6.53
2018-07-16T06:31:39.757Z,6.92
2018-07-16T06:34:08.664Z,6.92
2018-07-16T06:36:37.101Z,6.30
2018-07-16T06:39:06.078Z,6.25
2018-07-16T06:41:35.658Z,6.22
2018-07-16T06:44:03.812Z,6.12
2018-07-16T06:46:32.337Z,6.25
2018-07-16T06:49:01.094Z,6.50
2018-07-16T06:51:29.574Z,6.42
2018-07-16T06:53:57.998Z,6.30
2018-07-16T06:56:26.622Z,5.87
2018-07-16T06:58:55.609Z,6.45
2018-07-16T07:01:24.038Z,6.47
2018-07-16T07:03:53.164Z,6.53
2018-07-16T07:06:21.732Z,6.30
2018-07-16T07:08:50.162Z,6.03
2018-07-16T07:11:19.538Z,6.00
2018-07-16T07:13:48.317Z,6.03
2018-07-16T07:16:16.981Z,6.78
2018-07-16T07:18:45.991Z,5.97
2018-07-16T07:21:14.450Z,5.90
2018-07-16T07:23:43.303Z,6.00
2018-07-16T07:26:12.277Z,6.12
2018-07-16T07:28:40.911Z,6.03
2018-07-16T07:31:09.524Z,5.75
2018-07-16T07:33:38.251Z,5.85
2018-07-16T07:36:06.754Z,5.50
2018-07-16T07:38:35.175Z,5.70
2018-07-16T07:41:04.165Z,5.33
2018-07-16T07:43:32.618Z,5.50
2018-07-16T07:46:01.064Z,5.33
2018-07-16T07:48:30.450Z,5.30
2018-07-16T07:50:58.963Z,4.70
2018-07-16T07:53:27.433Z,4.50
2018-07-16T07:55:56.192Z,4.62
2018-07-16T07:58:25.035Z,4.62
2018-07-16T08:00:53.663Z,4.33
2018-07-16T08:03:22.938Z,4.45
2018-07-16T08:05:57.363Z,4.15
2018-07-16T08:08:25.878Z,4.12
2018-07-16T08:10:54.868Z,4.30
2018-07-16T08:13:23.555Z,4.20
2018-07-16T08:15:52.642Z,4.17
2018-07-16T08:18:21.730Z,3.62
2018-07-16T08:20:50.271Z,3.27
2018-07-16T08:23:18.931Z,3.27
2018-07-16T08:25:47.421Z,3.40
2018-07-16T08:28:16.059Z,3.50
2018-07-16T08:30:44.857Z,3.45
2018-07-16T08:33:13.669Z,3.70
2018-07-16T08:35:42.202Z,5.97
2018-07-16T08:38:11.929Z,3.75
2018-07-16T08:40:40.511Z,3.55
2018-07-16T08:43:09.010Z,4.00
2018-07-16T08:45:37.869Z,3.35
2018-07-16T08:48:06.657Z,3.22
2018-07-16T08:50:35.113Z,3.20
2018-07-16T08:53:04.434Z,2.80
2018-07-16T08:55:33.353Z,2.95
2018-07-16T08:58:02.094Z,3.20
2018-07-16T09:00:31.001Z,3.15
2018-07-16T09:02:59.705Z,3.20
2018-07-16T09:05:28.389Z,2.98
2018-07-16T09:07:57.264Z,3.60
2018-07-16T09:10:25.717Z,3.80
2018-07-16T09:12:55.134Z,5.25
2018-07-16T09:15:23.897Z,3.20
2018-07-16T09:17:52.700Z,6.28
2018-07-16T09:20:21.733Z,3.45
2018-07-16T09:22:50.204Z,3.00
2018-07-16T09:25:18.740Z,3.25
2018-07-16T09:27:47.745Z,3.30
2018-07-16T09:30:17.478Z,3.10
2018-07-16T09:32:46.039Z,2.95
2018-07-16T09:35:14.778Z,3.40
2018-07-16T09:37:43.740Z,3.55
2018-07-16T09:40:12.485Z,3.20
2018-07-16T09:42:41.133Z,3.30
2018-07-16T09:45:10.018Z,3.08
2018-07-16T09:47:38.777Z,3.20
2018-07-16T09:50:07.312Z,3.22
2018-07-16T09:52:36.178Z,3.10
2018-07-16T09:55:04.922Z,3.20
2018-07-16T09:57:33.562Z,3.33
2018-07-16T10:00:02.040Z,3.20
2018-07-16T10:02:30.476Z,3.30
2018-07-16T10:04:58.987Z,2.65
2018-07-16T10:07:27.745Z,4.87
2018-07-16T10:09:56.521Z,3.27
2018-07-16T10:12:24.974Z,2.70
2018-07-16T10:14:53.925Z,7.30
2018-07-16T10:17:23.022Z,5.58
2018-07-16T10:19:51.737Z,3.40
2018-07-16T10:22:20.681Z,2.72
2018-07-16T10:24:49.272Z,2.72
2018-07-16T10:27:18.669Z,2.80
2018-07-16T10:29:47.872Z,2.67
2018-07-16T10:32:16.685Z,2.47
2018-07-16T10:34:45.661Z,2.58
2018-07-16T10:37:14.546Z,2.20
2018-07-16T10:39:43.001Z,2.80
2018-07-16T10:42:11.807Z,2.33
2018-07-16T10:44:40.365Z,2.40
2018-07-16T10:47:09.182Z,2.30
2018-07-16T10:49:37.777Z,2.25
2018-07-16T10:52:06.889Z,1.87
2018-07-16T10:54:35.329Z,2.00
2018-07-16T10:57:03.873Z,2.20
2018-07-16T10:59:32.538Z,1.72
2018-07-16T11:02:01.099Z,1.65
2018-07-16T11:04:29.737Z,1.77
2018-07-16T11:06:58.608Z,1.70
2018-07-16T11:09:27.249Z,7.80
2018-07-16T11:11:56.074Z,1.95
2018-07-16T11:14:25.135Z,2.33
2018-07-16T11:16:53.614Z,5.67
2018-07-16T11:19:22.090Z,18.85
2018-07-16T11:21:51.122Z,16.60
2018-07-16T11:24:20.313Z,10.75
2018-07-16T11:26:48.997Z,3.87
2018-07-16T11:29:17.909Z,32.70
2018-07-16T11:31:46.948Z,19.90
2018-07-16T11:34:16.099Z,9.63
2018-07-16T11:36:44.933Z,1.50
2018-07-16T11:39:13.505Z,9.50
2018-07-16T11:41:42.048Z,2.50
2018-07-16T11:44:10.686Z,1.50
2018-07-16T11:46:39.113Z,1.80
2018-07-16T11:49:07.714Z,1.90
2018-07-16T11:51:36.344Z,1.87
2018-07-16T11:54:05.097Z,1.70
2018-07-16T11:56:33.638Z,2.40
2018-07-16T11:59:02.827Z,4.35
2018-07-16T12:01:31.225Z,2.25
2018-07-16T12:03:59.701Z,2.00
2018-07-16T12:06:28.894Z,2.65
2018-07-16T12:08:57.327Z,2.95
2018-07-16T12:11:25.815Z,2.45
2018-07-16T12:13:55.050Z,2.30
2018-07-16T12:16:23.477Z,2.30
2018-07-16T12:18:51.997Z,2.40
2018-07-16T12:21:20.874Z,2.42
2018-07-16T12:23:49.330Z,2.40
2018-07-16T12:26:17.927Z,2.37
2018-07-16T12:28:48.024Z,2.20
2018-07-16T12:31:16.938Z,1.90
2018-07-16T12:33:45.677Z,2.17
2018-07-16T12:36:14.525Z,1.92
2018-07-16T12:38:43.311Z,2.20
2018-07-16T12:41:11.761Z,2.05
2018-07-16T12:43:40.581Z,2.27
2018-07-16T12:46:09.133Z,2.20
2018-07-16T12:48:37.566Z,2.15
2018-07-16T12:51:06.719Z,2.10
2018-07-16T12:53:35.458Z,1.95
2018-07-16T12:56:03.891Z,2.40
2018-07-16T12:58:32.706Z,2.67
2018-07-16T13:01:01.672Z,2.25
2018-07-16T13:03:30.475Z,2.20
2018-07-16T13:05:58.954Z,2.40
2018-07-16T13:08:27.409Z,2.12
2018-07-16T13:10:56.502Z,2.30
2018-07-16T13:13:25.434Z,2.60
2018-07-16T13:15:54.042Z,2.60
2018-07-16T13:18:22.865Z,2.60
2018-07-16T13:20:51.386Z,2.60
2018-07-16T13:23:19.825Z,2.47
2018-07-16T13:25:48.646Z,2.50
2018-07-16T13:28:17.257Z,2.62
2018-07-16T13:30:45.690Z,2.67
2018-07-16T13:33:14.377Z,2.87
2018-07-16T13:35:43.301Z,2.37
2018-07-16T13:38:11.772Z,3.85
2018-07-16T13:40:40.470Z,9.18
2018-07-16T13:43:09.669Z,4.37
2018-07-16T13:45:38.283Z,3.35
2018-07-16T13:48:07.109Z,2.35
2018-07-16T13:50:35.803Z,2.50
2018-07-16T13:53:05.194Z,2.30
2018-07-16T13:55:34.068Z,2.20
2018-07-16T13:58:03.301Z,2.30
2018-07-16T14:00:31.765Z,2.35
2018-07-16T14:03:00.666Z,2.02
2018-07-16T14:05:29.374Z,2.10
2018-07-16T14:07:57.985Z,2.22
2018-07-16T14:10:27.135Z,2.15
2018-07-16T14:12:55.784Z,2.17
2018-07-16T14:15:24.521Z,1.98
2018-07-16T14:17:53.622Z,2.40
2018-07-16T14:20:22.370Z,2.40
2018-07-16T14:22:50.793Z,2.00
2018-07-16T14:25:19.274Z,1.90
2018-07-16T14:27:49.778Z,1.92
2018-07-16T14:30:18.911Z,1.92
2018-07-16T14:32:47.382Z,2.02
2018-07-16T14:35:16.675Z,2.30
2018-07-16T14:37:45.793Z,1.95
2018-07-16T14:40:14.230Z,2.05
2018-07-16T14:42:43.025Z,1.90
2018-07-16T14:45:11.861Z,1.95
2018-07-16T14:47:40.556Z,1.98
2018-07-16T14:50:09.396Z,2.27
2018-07-16T14:52:38.138Z,2.37
2018-07-16T14:55:06.974Z,2.30
2018-07-16T14:57:35.745Z,2.20
2018-07-16T15:00:04.875Z,2.33
2018-07-16T15:02:33.345Z,2.40
2018-07-16T15:05:02.417Z,2.30
2018-07-16T15:07:31.267Z,2.30
2018-07-16T15:10:00.185Z,2.12
2018-07-16T15:12:29.086Z,2.27
2018-07-16T15:14:57.563Z,2.70
2018-07-16T15:17:27.273Z,2.40
2018-07-16T15:19:56.307Z,2.50
2018-07-16T15:22:24.801Z,2.20
2018-07-16T15:24:53.558Z,2.33
2018-07-16T15:27:22.429Z,2.45
2018-07-16T15:29:51.047Z,2.60
2018-07-16T15:32:19.531Z,2.40
2018-07-16T15:34:49.702Z,2.60
2018-07-16T15:37:18.709Z,2.40
2018-07-16T15:39:48.088Z,2.42
2018-07-16T15:42:17.309Z,2.98
2018-07-16T15:44:46.099Z,2.52
2018-07-16T15:47:14.754Z,2.47
2018-07-16T15:49:43.666Z,2.80
2018-07-16T15:52:12.477Z,2.90
2018-07-16T15:54:40.925Z,2.47
2018-07-16T15:57:10.055Z,2.65
2018-07-16T15:59:38.796Z,2.60
2018-07-16T16:02:07.581Z,2.50
2018-07-16T16:04:36.395Z,2.50
2018-07-16T16:07:07.245Z,2.47
2018-07-16T16:09:36.989Z,2.60
2018-07-16T16:12:05.874Z,2.60
2018-07-16T16:14:34.593Z,2.50
2018-07-16T16:17:03.298Z,3.20
2018-07-16T16:19:31.891Z,3.08
2018-07-16T16:22:00.785Z,2.70
2018-07-16T16:24:29.636Z,2.90
2018-07-16T16:26:58.161Z,2.98
2018-07-16T16:29:26.656Z,2.87
2018-07-16T16:31:55.905Z,2.80
2018-07-16T16:34:24.561Z,3.10
2018-07-16T16:36:53.052Z,4.10
2018-07-16T16:39:21.793Z,3.87
2018-07-16T16:41:50.717Z,3.58
2018-07-16T16:44:19.209Z,3.52
2018-07-16T16:46:48.475Z,4.50
2018-07-16T16:49:17.595Z,3.80
2018-07-16T16:51:46.097Z,3.40
2018-07-16T16:54:14.572Z,4.15
2018-07-16T16:56:43.665Z,3.60
2018-07-16T16:59:12.670Z,4.20
2018-07-16T17:01:42.082Z,4.35
2018-07-16T17:04:10.940Z,4.70
2018-07-16T17:06:39.375Z,5.15
2018-07-16T17:09:08.915Z,5.30
2018-07-16T17:11:37.609Z,5.30
2018-07-16T17:14:06.098Z,3.40
2018-07-16T17:16:34.885Z,3.12
2018-07-16T17:19:03.669Z,2.77
2018-07-16T17:21:32.141Z,2.90
2018-07-16T17:24:01.314Z,3.00
2018-07-16T17:26:30.342Z,3.50
2018-07-16T17:28:58.790Z,3.08
2018-07-16T17:31:27.597Z,3.17
2018-07-16T17:33:56.487Z,3.25
2018-07-16T17:36:25.537Z,3.00
2018-07-16T17:38:54.030Z,4.47
2018-07-16T17:41:23.054Z,3.62
2018-07-16T17:43:51.613Z,3.87
2018-07-16T17:46:20.132Z,4.22
2018-07-16T17:48:48.813Z,4.15
2018-07-16T17:51:18.238Z,3.80
2018-07-16T17:53:47.301Z,3.95
2018-07-16T17:56:16.635Z,4.15
2018-07-16T17:58:45.081Z,4.53
2018-07-16T18:01:14.097Z,3.62
2018-07-16T18:03:42.826Z,3.95
2018-07-16T18:06:11.246Z,4.12
2018-07-16T18:08:40.018Z,4.00
2018-07-16T18:11:08.913Z,3.85
2018-07-16T18:13:37.622Z,4.10
2018-07-16T18:16:06.836Z,4.22
2018-07-16T18:18:35.513Z,4.05
2018-07-16T18:21:04.051Z,4.25
2018-07-16T18:23:32.689Z,4.40
2018-07-16T18:26:01.648Z,4.22
2018-07-16T18:28:30.071Z,4.10
2018-07-16T18:30:58.794Z,4.22
2018-07-16T18:33:27.609Z,5.15
2018-07-16T18:35:58.926Z,4.62
2018-07-16T18:38:27.901Z,4.53
2018-07-16T18:40:56.744Z,4.40
2018-07-16T18:43:25.619Z,4.67
2018-07-16T18:45:54.083Z,4.85
2018-07-16T18:48:22.793Z,5.05
2018-07-16T18:50:51.933Z,5.10
2018-07-16T18:53:20.737Z,4.45
2018-07-16T18:55:49.467Z,4.33
2018-07-16T18:58:19.309Z,4.62
2018-07-16T19:00:48.937Z,4.62
2018-07-16T19:03:17.769Z,4.33
2018-07-16T19:05:47.025Z,5.97
2018-07-16T19:08:16.165Z,6.92
2018-07-16T19:10:44.957Z,4.97
2018-07-16T19:13:13.485Z,4.47
2018-07-16T19:15:41.955Z,4.33
2018-07-16T19:18:10.797Z,4.60
2018-07-16T19:20:39.648Z,4.80
2018-07-16T19:23:08.609Z,4.55
2018-07-16T19:25:37.378Z,4.40
2018-07-16T19:28:06.326Z,4.80
2018-07-16T19:30:35.374Z,4.42
2018-07-16T19:33:04.302Z,4.65
2018-07-16T19:35:32.800Z,4.97
2018-07-16T19:38:01.323Z,5.37
2018-07-16T19:40:30.781Z,4.80
2018-07-16T19:42:59.580Z,4.53
2018-07-16T19:45:28.129Z,4.80
2018-07-16T19:47:56.909Z,5.03
2018-07-16T19:50:25.370Z,4.90
2018-07-16T19:52:53.821Z,5.35
2018-07-16T19:55:22.868Z,5.35
2018-07-16T19:57:51.418Z,5.28
2018-07-16T20:00:19.876Z,5.92
2018-07-16T20:02:48.682Z,6.03
2018-07-16T20:05:17.388Z,5.20
2018-07-16T20:07:46.025Z,5.55
2018-07-16T20:10:14.813Z,5.10
2018-07-16T20:12:43.322Z,4.87
2018-07-16T20:15:17.129Z,5.05
2018-07-16T20:17:46.073Z,4.87
2018-07-16T20:20:14.620Z,5.08
2018-07-16T20:22:43.423Z,5.10
2018-07-16T20:25:11.881Z,4.90
2018-07-16T20:27:40.494Z,5.00
2018-07-16T20:30:10.054Z,5.50
2018-07-16T20:32:38.801Z,8.38
2018-07-16T20:35:07.486Z,5.65
2018-07-16T20:37:36.348Z,5.12
2018-07-16T20:40:05.126Z,5.50
2018-07-16T20:42:33.597Z,4.97
2018-07-16T20:45:02.732Z,5.45
2018-07-16T20:47:31.178Z,5.40
2018-07-16T20:49:59.654Z,5.45
2018-07-16T20:52:28.760Z,5.85
2018-07-16T20:54:57.561Z,5.17
2018-07-16T20:57:26.001Z,6.17
2018-07-16T20:59:54.877Z,5.33
2018-07-16T21:02:23.946Z,5.55
2018-07-16T21:04:52.401Z,5.90
2018-07-16T21:07:21.505Z,5.37
2018-07-16T21:09:50.274Z,6.37
2018-07-16T21:12:18.725Z,6.05
2018-07-16T21:14:47.407Z,5.80
2018-07-16T21:17:16.133Z,5.83
2018-07-16T21:19:44.721Z,6.10
2018-07-16T21:22:13.913Z,5.95
2018-07-16T21:24:42.505Z,6.08
2018-07-16T21:27:11.130Z,6.17
2018-07-16T21:29:39.977Z,5.80
2018-07-16T21:32:08.941Z,5.97
2018-07-16T21:34:37.529Z,5.80
2018-07-16T21:37:06.011Z,6.10
2018-07-16T21:39:34.489Z,6.22
2018-07-16T21:42:03.206Z,6.10
2018-07-16T21:44:32.233Z,7.30
2018-07-16T21:47:00.681Z,6.62
2018-07-16T21:49:29.160Z,6.25
2018-07-16T21:51:57.929Z,6.17
2018-07-16T21:54:26.353Z,6.50
2018-07-16T21:56:54.801Z,5.73
2018-07-16T21:59:23.923Z,6.17
2018-07-16T22:01:53.082Z,6.00
2018-07-16T22:04:21.927Z,6.22
2018-07-16T22:06:50.374Z,6.27
2018-07-16T22:09:19.094Z,6.40
2018-07-16T22:11:48.298Z,6.58
2018-07-16T22:14:17.170Z,5.80
2018-07-16T22:16:46.022Z,6.57
2018-07-16T22:19:14.761Z,6.80
2018-07-16T22:21:43.678Z,6.30
2018-07-16T22:24:12.389Z,6.28
2018-07-16T22:26:40.817Z,6.27
2018-07-16T22:29:09.726Z,6.53
2018-07-16T22:31:38.501Z,6.30
2018-07-16T22:34:07.457Z,6.20
2018-07-16T22:36:36.306Z,6.50
2018-07-16T22:39:06.853Z,6.30
2018-07-16T22:41:35.982Z,6.30
2018-07-16T22:44:04.505Z,6.53
2018-07-16T22:46:33.225Z,6.20
2018-07-16T22:49:01.997Z,6.23
2018-07-16T22:51:31.171Z,6.83
2018-07-16T22:53:59.701Z,6.27
2018-07-16T22:56:28.210Z,6.20
2018-07-16T22:58:57.220Z,6.33
2018-07-16T23:01:25.725Z,6.87
2018-07-16T23:03:54.209Z,6.70
2018-07-16T23:06:23.091Z,6.40
2018-07-16T23:08:51.798Z,6.83
2018-07-16T23:11:20.293Z,6.53
2018-07-16T23:13:48.765Z,7.13
2018-07-16T23:16:17.841Z,7.37
2018-07-16T23:18:47.402Z,7.13
2018-07-16T23:21:16.441Z,6.33
2018-07-16T23:23:44.902Z,6.47
2018-07-16T23:26:13.865Z,6.93
2018-07-16T23:28:42.357Z,7.00
2018-07-16T23:31:10.874Z,6.97
2018-07-16T23:33:39.585Z,6.63
2018-07-16T23:36:08.987Z,6.93
2018-07-16T23:38:37.561Z,6.97
2018-07-16T23:41:06.574Z,7.37
2018-07-16T23:43:35.235Z,6.83
2018-07-16T23:46:04.085Z,6.73
2018-07-16T23:48:32.642Z,7.13
2018-07-16T23:51:01.261Z,6.87
2018-07-16T23:53:29.767Z,6.57
2018-07-16T23:55:58.280Z,6.53
2018-07-16T23:58:27.449Z,6.87
